Terminal Aerodrome Forecast
Issued by NWS

Home | Current Version | Previous Version | Graphics & Text | Print | Product List | Glossary On
Versions: 1 2 3 4 5 6 7 8 9 10 11 12 13 14 15 16
000
FTUS43 KGRB 221500 AAA
TAFATW
TAF AMD
KATW 221500Z 2215/2312 23012G22KT P6SM SCT025 BKN050
      TEMPO 2216/2218 BKN025
     FM221800 26013G23KT P6SM SCT020 BKN035
     FM222100 29013G22KT P6SM SCT035 BKN050
     FM230500 33007KT P6SM SKC=

USA.gov is the U.S. government's official web portal to all federal, state and local government web resources and services.